Time;durP1;ratioP1;P1;durP2;ratioP2;P2;SDS_P1;SDS_P2;PMS_P1;PMS_P2;Temp;Humidity;BMP_temperature;BMP_pressure;BME280_temperature;BME280_humidity;BME280_pressure;Samples;Min_cycle;Max_cycle;Signal;HPM_P1;HPM_P2
2022/11/08 00:01:50;;;;;;;;;;;;;;;;;;5103258;28;20394;-40
2022/11/08 00:04:16;;;;;;;;;;;;;;;;;;5077521;28;19912;-40
2022/11/08 00:14:56;;;;;;;;;;;;;;;;;;5075335;28;19999;-40
2022/11/08 00:17:22;;;;;;;;;;;;;;;;;;5072869;28;20635;-39
2022/11/08 00:19:48;;;;;;;;;;;;;;;;;;5074629;28;20410;-40
2022/11/08 00:22:14;;;;;;;;;;;;;;;;;;5070052;28;19926;-39
2022/11/08 00:24:40;;;;;;;;;;;;;;;;;;5066691;28;20437;-40
2022/11/08 00:27:06;;;;;;;;;;;;;;;;;;5081189;28;19907;-39
2022/11/08 00:29:31;;;;;;;;;;;;;;;;;;5108639;28;20418;-40
2022/11/08 00:31:57;;;;;;;;;;;;;;;;;;5086155;28;19910;-39
2022/11/08 00:34:23;;;;;;;;;;;;;;;;;;5113272;28;20006;-40
2022/11/08 00:36:49;;;;;;;;;;;;;;;;;;5101191;28;20351;-39
2022/11/08 00:39:15;;;;;;;;;;;;;;;;;;5090800;28;19904;-39
2022/11/08 00:41:41;;;;;;;;;;;;;;;;;;5079487;28;19908;-39
2022/11/08 00:44:07;;;;;;;;;;;;;;;;;;5072479;28;19967;-39
2022/11/08 00:46:34;;;;;;;;;;;;;;;;;;5071462;28;19950;-39
2022/11/08 00:49:00;;;;;;;;;;;;;;;;;;5071411;28;19951;-39
2022/11/08 00:51:26;;;;;;;;;;;;;;;;;;5074647;28;20069;-39
2022/11/08 00:53:51;;;;;;;;;;;;;;;;;;5074084;28;19908;-39
2022/11/08 06:03:34;;;;;;;;;;;;;;;;;;5072469;28;19994;-40
2022/11/08 06:06:00;;;;;;;;;;;;;;;;;;5071783;28;20384;-40
2022/11/08 06:08:26;;;;;;;;;;;;;;;;;;5081852;28;19912;-39
2022/11/08 06:10:52;;;;;;;;;;;;;;;;;;5087010;28;19912;-39
2022/11/08 06:13:18;;;;;;;;;;;;;;;;;;5072390;28;20354;-39
2022/11/08 06:15:44;;;;;;;;;;;;;;;;;;5072141;28;19910;-39
2022/11/08 06:18:10;;;;;;;;;;;;;;;;;;5080501;28;20421;-40
2022/11/08 06:20:36;;;;;;;;;;;;;;;;;;5092654;28;19904;-40
2022/11/08 06:23:02;;;;;;;;;;;;;;;;;;5090520;28;20403;-40
2022/11/08 06:25:27;;;;;;;;;;;;;;;;;;5092557;28;19903;-40
2022/11/08 06:27:53;;;;;;;;;;;;;;;;;;5091178;28;20028;-40
2022/11/08 06:30:19;;;;;;;;;;;;;;;;;;5092393;28;19911;-39
2022/11/08 06:32:45;;;;;;;;;;;;;;;;;;5088021;28;19982;-40
2022/11/08 06:35:11;;;;;;;;;;;;;;;;;;5084955;28;19908;-39
2022/11/08 06:37:37;;;;;;;;;;;;;;;;;;5079054;28;19919;-39
2022/11/08 06:40:03;;;;;;;;;;;;;;;;;;5075308;28;19920;-39
2022/11/08 06:42:29;;;;;;;;;;;;;;;;;;5088412;28;20014;-39
2022/11/08 06:44:54;;;;;;;;;;;;;;;;;;5075993;28;19912;-39
2022/11/08 06:47:20;;;;;;;;;;;;;;;;;;5069536;28;20008;-39
2022/11/08 06:49:46;;;;;;;;;;;;;;;;;;5083945;28;19919;-39
2022/11/08 06:52:12;;;;;;;;;;;;;;;;;;5082311;28;19987;-39
2022/11/08 06:54:38;;;;;;;;;;;;;;;;;;5077565;28;19932;-39
2022/11/08 06:57:04;;;;;;;;;;;;;;;;;;5088517;28;19912;-40
2022/11/08 06:59:30;;;;;;;;;;;;;;;;;;5077799;28;19931;-39
2022/11/08 07:01:56;;;;;;;;;;;;;;;;;;5076117;28;19908;-39
2022/11/08 07:04:22;;;;;;;;;;;;;;;;;;5083455;28;19918;-39
2022/11/08 07:06:48;;;;;;;;;;;;;;;;;;5080018;28;19909;-39
2022/11/08 07:09:14;;;;;;;;;;;;;;;;;;5070188;28;19908;-39
2022/11/08 07:11:40;;;;;;;;;;;;;;;;;;5072416;28;19908;-40
2022/11/08 07:14:06;;;;;;;;;;;;;;;;;;5080955;28;19951;-39
2022/11/08 07:16:32;;;;;;;;;;;;;;;;;;5071147;28;19913;-39
2022/11/08 07:18:58;;;;;;;;;;;;;;;;;;5064953;28;20003;-40
2022/11/08 07:21:24;;;;;;;;;;;;;;;;;;5081161;28;19912;-40
2022/11/08 07:23:50;;;;;;;;;;;;;;;;;;5090269;28;19954;-39
2022/11/08 07:26:16;;;;;;;;;;;;;;;;;;5088662;28;19908;-39
2022/11/08 07:28:42;;;;;;;;;;;;;;;;;;5090082;28;19904;-39
2022/11/08 07:31:08;;;;;;;;;;;;;;;;;;5101932;28;19914;-40
2022/11/08 07:33:34;;;;;;;;;;;;;;;;;;5090271;28;19912;-40
2022/11/08 07:36:00;;;;;;;;;;;;;;;;;;5088501;28;19915;-40
2022/11/08 07:38:26;;;;;;;;;;;;;;;;;;5075048;28;19908;-39
2022/11/08 07:40:52;;;;;;;;;;;;;;;;;;5080352;28;19915;-39
2022/11/08 07:43:18;;;;;;;;;;;;;;;;;;5073255;28;20505;-40
2022/11/08 07:45:44;;;;;;;;;;;;;;;;;;5069685;28;19912;-40
2022/11/08 07:48:10;;;;;;;;;;;;;;;;;;5069930;28;20461;-39
2022/11/08 07:50:36;;;;;;;;;;;;;;;;;;5089669;28;19994;-39
2022/11/08 07:53:02;;;;;;;;;;;;;;;;;;5068236;28;20017;-39
2022/11/08 07:55:29;;;;;;;;;;;;;;;;;;5057636;28;19919;-39
2022/11/08 07:57:57;;;;;;;;;;;;;;;;;;5060930;28;19912;-40
2022/11/08 08:00:23;;;;;;;;;;;;;;;;;;5073415;28;19908;-39
2022/11/08 08:02:49;;;;;;;;;;;;;;;;;;5075257;28;19992;-39
2022/11/08 08:05:15;;;;;;;;;;;;;;;;;;5066081;28;19961;-39
2022/11/08 08:07:41;;;;;;;;;;;;;;;;;;5059896;28;19970;-39
2022/11/08 08:10:07;;;;;;;;;;;;;;;;;;5055475;28;19947;-39
2022/11/08 08:12:34;;;;;;;;;;;;;;;;;;5062921;28;20007;-39
2022/11/08 08:15:00;;;;;;;;;;;;;;;;;;5079069;28;19919;-39
2022/11/08 08:17:26;;;;;;;;;;;;;;;;;;5070560;28;19909;-39
2022/11/08 08:19:51;;;;;;;;;;;;;;;;;;5084076;28;19908;-39
2022/11/08 08:22:18;;;;;;;;;;;;;;;;;;5084984;28;19915;-40
2022/11/08 08:24:45;;;;;;;;;;;;;;;;;;5070310;28;19908;-39
2022/11/08 08:27:11;;;;;;;;;;;;;;;;;;5086759;28;19908;-39
2022/11/08 08:29:37;;;;;;;;;;;;;;;;;;5087131;28;19912;-39
2022/11/08 08:32:03;;;;;;;;;;;;;;;;;;5078154;28;20288;-39
2022/11/08 08:34:30;;;;;;;;;;;;;;;;;;5081389;28;20302;-39
2022/11/08 08:36:56;;;;;;;;;;;;;;;;;;5088079;28;20299;-39
2022/11/08 08:39:22;;;;;;;;;;;;;;;;;;5093059;28;19907;-39
2022/11/08 08:41:47;;;;;;;;;;;;;;;;;;5095408;28;19912;-40
2022/11/08 08:44:14;;;;;;;;;;;;;;;;;;5087511;28;19915;-39
2022/11/08 08:46:40;;;;;;;;;;;;;;;;;;5087349;28;19908;-39
2022/11/08 08:49:06;;;;;;;;;;;;;;;;;;5089900;28;19908;-40
2022/11/08 08:51:32;;;;;;;;;;;;;;;;;;5087805;28;19904;-40
2022/11/08 08:53:58;;;;;;;;;;;;;;;;;;5087638;28;19953;-39
2022/11/08 08:56:24;;;;;;;;;;;;;;;;;;5086285;28;20010;-39
2022/11/08 08:58:50;;;;;;;;;;;;;;;;;;5089353;28;19908;-39
2022/11/08 09:01:17;;;;;;;;;;;;;;;;;;5087264;28;19915;-40
2022/11/08 09:03:43;;;;;;;;;;;;;;;;;;5080153;28;19912;-40
2022/11/08 09:06:08;;;;;;;;;;;;;;;;;;5089412;28;19919;-40
2022/11/08 09:08:35;;;;;;;;;;;;;;;;;;5089390;28;20382;-40
2022/11/08 09:11:02;;;;;;;;;;;;;;;;;;5084693;28;19911;-39
2022/11/08 09:13:31;;;;;;;;;;;;;;;;;;5071291;28;20401;-39
2022/11/08 09:15:57;;;;;;;;;;;;;;;;;;5089614;28;20011;-40
2022/11/08 09:18:24;;;;;;;;;;;;;;;;;;5089328;28;20072;-39
2022/11/08 09:20:50;;;;;;;;;;;;;;;;;;5089310;28;19915;-39
2022/11/08 09:23:16;;;;;;;;;;;;;;;;;;5078311;28;19912;-40
2022/11/08 09:25:42;;;;;;;;;;;;;;;;;;5108352;28;19990;-40
2022/11/08 09:28:08;;;;;;;;;;;;;;;;;;5108669;28;19907;-39
2022/11/08 09:30:35;;;;;;;;;;;;;;;;;;5083270;28;20003;-40
2022/11/08 09:33:01;;;;;;;;;;;;;;;;;;5068656;28;20410;-40
2022/11/08 09:35:27;;;;;;;;;;;;;;;;;;5068951;28;19905;-40
2022/11/08 09:37:54;;;;;;;;;;;;;;;;;;5068642;28;20372;-39
2022/11/08 09:40:20;;;;;;;;;;;;;;;;;;5068435;28;19908;-40
2022/11/08 09:42:46;;;;;;;;;;;;;;;;;;5069300;28;19916;-40
2022/11/08 09:45:12;;;;;;;;;;;;;;;;;;5069844;28;20338;-40
2022/11/08 09:47:38;;;;;;;;;;;;;;;;;;5050688;28;19908;-40
2022/11/08 09:50:04;;;;;;;;;;;;;;;;;;5068482;28;19950;-40
2022/11/08 09:52:30;;;;;;;;;;;;;;;;;;5068538;28;19994;-40
2022/11/08 09:54:56;;;;;;;;;;;;;;;;;;5068312;28;19908;-39
2022/11/08 09:57:23;;;;;;;;;;;;;;;;;;5068459;28;19912;-39
2022/11/08 09:59:48;;;;;;;;;;;;;;;;;;5082649;28;19931;-40
2022/11/08 10:02:14;;;;;;;;;;;;;;;;;;5067817;28;19920;-39
2022/11/08 10:04:40;;;;;;;;;;;;;;;;;;5066870;28;20387;-39
2022/11/08 10:07:06;;;;;;;;;;;;;;;;;;5068005;28;20007;-40
2022/11/08 10:09:32;;;;;;;;;;;;;;;;;;5068562;28;20292;-39
2022/11/08 10:11:58;;;;;;;;;;;;;;;;;;5068636;28;19911;-40
2022/11/08 10:14:24;;;;;;;;;;;;;;;;;;5070991;28;19916;-40
2022/11/08 10:16:50;;;;;;;;;;;;;;;;;;5088193;28;20432;-40
2022/11/08 10:19:16;;;;;;;;;;;;;;;;;;5085444;28;19916;-40
2022/11/08 10:21:41;;;;;;;;;;;;;;;;;;5067791;28;20382;-40
2022/11/08 10:24:07;;;;;;;;;;;;;;;;;;5068759;28;19912;-39
2022/11/08 10:26:33;;;;;;;;;;;;;;;;;;5068815;28;20318;-39
2022/11/08 10:29:00;;;;;;;;;;;;;;;;;;5068369;28;20361;-39
2022/11/08 10:31:26;;;;;;;;;;;;;;;;;;5067786;28;20397;-39
2022/11/08 10:33:53;;;;;;;;;;;;;;;;;;5069922;28;19904;-40
2022/11/08 10:36:19;;;;;;;;;;;;;;;;;;5074905;28;19908;-40
2022/11/08 10:38:45;;;;;;;;;;;;;;;;;;5086830;28;19957;-40
2022/11/08 10:41:11;;;;;;;;;;;;;;;;;;5084446;28;19912;-40
2022/11/08 10:43:37;;;;;;;;;;;;;;;;;;5084230;28;19977;-40
2022/11/08 10:46:03;;;;;;;;;;;;;;;;;;5077343;28;19912;-39
2022/11/08 10:48:28;;;;;;;;;;;;;;;;;;5089203;28;19950;-39
2022/11/08 10:50:54;;;;;;;;;;;;;;;;;;5054535;28;20003;-40
2022/11/08 10:53:20;;;;;;;;;;;;;;;;;;5068023;28;19912;-39
2022/11/08 10:55:46;;;;;;;;;;;;;;;;;;5068528;28;19993;-40
2022/11/08 10:58:12;;;;;;;;;;;;;;;;;;5068430;28;19911;-40
2022/11/08 11:00:38;;;;;;;;;;;;;;;;;;5068051;28;19900;-40
2022/11/08 11:03:04;;;;;;;;;;;;;;;;;;5070353;28;19920;-40
2022/11/08 11:05:30;;;;;;;;;;;;;;;;;;5079254;28;19916;-40
2022/11/08 11:07:57;;;;;;;;;;;;;;;;;;5078871;28;20130;-40
2022/11/08 11:10:23;;;;;;;;;;;;;;;;;;5068447;28;19935;-40
2022/11/08 11:12:50;;;;;;;;;;;;;;;;;;5068355;28;19911;-40
2022/11/08 11:15:15;;;;;;;;;;;;;;;;;;5068067;28;19950;-40
2022/11/08 11:17:41;;;;;;;;;;;;;;;;;;5081030;28;19911;-40
2022/11/08 11:20:07;;;;;;;;;;;;;;;;;;5088336;28;19919;-40
2022/11/08 11:22:33;;;;;;;;;;;;;;;;;;5088243;28;20012;-40
2022/11/08 11:24:59;;;;;;;;;;;;;;;;;;5075430;28;19904;-40
2022/11/08 11:27:25;;;;;;;;;;;;;;;;;;5073322;28;19908;-40
2022/11/08 11:29:51;;;;;;;;;;;;;;;;;;5087266;28;19908;-40
2022/11/08 11:32:18;;;;;;;;;;;;;;;;;;5072156;28;19912;-40
2022/11/08 11:34:43;;;;;;;;;;;;;;;;;;5069094;28;19912;-40
2022/11/08 11:37:09;;;;;;;;;;;;;;;;;;5076428;28;19915;-39
2022/11/08 11:39:35;;;;;;;;;;;;;;;;;;5081464;28;19912;-40
2022/11/08 11:42:02;;;;;;;;;;;;;;;;;;5066741;28;19912;-40
2022/11/08 11:44:28;;;;;;;;;;;;;;;;;;5066342;28;19915;-40
2022/11/08 11:46:55;;;;;;;;;;;;;;;;;;5078911;28;19908;-40
2022/11/08 11:49:21;;;;;;;;;;;;;;;;;;5065689;28;20402;-40
2022/11/08 11:51:47;;;;;;;;;;;;;;;;;;5070111;28;19924;-40
2022/11/08 11:54:13;;;;;;;;;;;;;;;;;;5070595;28;19904;-40
2022/11/08 11:56:41;;;;;;;;;;;;;;;;;;5070686;28;19915;-40
2022/11/08 11:59:07;;;;;;;;;;;;;;;;;;5069023;28;19951;-40
2022/11/08 12:01:33;;;;;;;;;;;;;;;;;;5070206;28;19958;-40
2022/11/08 12:03:59;;;;;;;;;;;;;;;;;;5073256;28;19912;-40
2022/11/08 12:06:26;;;;;;;;;;;;;;;;;;5089590;28;19911;-40
2022/11/08 12:08:52;;;;;;;;;;;;;;;;;;5089178;28;19942;-40
2022/11/08 12:11:18;;;;;;;;;;;;;;;;;;5089413;28;19939;-40
2022/11/08 12:13:45;;;;;;;;;;;;;;;;;;5089336;28;20329;-40
2022/11/08 12:16:10;;;;;;;;;;;;;;;;;;5089205;28;20320;-40
2022/11/08 12:18:36;;;;;;;;;;;;;;;;;;5089597;28;19915;-40
2022/11/08 12:21:03;;;;;;;;;;;;;;;;;;5082682;28;19916;-41
2022/11/08 12:23:29;;;;;;;;;;;;;;;;;;5077455;28;20295;-40
2022/11/08 12:25:55;;;;;;;;;;;;;;;;;;5068649;28;19904;-40
2022/11/08 12:28:21;;;;;;;;;;;;;;;;;;5068758;28;19949;-40
2022/11/08 12:30:47;;;;;;;;;;;;;;;;;;5070769;28;19951;-40
2022/11/08 12:33:13;;;;;;;;;;;;;;;;;;5088677;28;19910;-40
2022/11/08 12:35:39;;;;;;;;;;;;;;;;;;5088945;28;19901;-40
2022/11/08 12:38:04;;;;;;;;;;;;;;;;;;5086696;28;19908;-40
2022/11/08 12:40:30;;;;;;;;;;;;;;;;;;5079572;28;19915;-41
2022/11/08 12:42:56;;;;;;;;;;;;;;;;;;5086495;28;20380;-41
2022/11/08 12:45:22;;;;;;;;;;;;;;;;;;5085176;28;19996;-41
2022/11/08 12:47:48;;;;;;;;;;;;;;;;;;5075879;28;19908;-41
2022/11/08 12:50:14;;;;;;;;;;;;;;;;;;5048680;28;20383;-41
2022/11/08 12:52:41;;;;;;;;;;;;;;;;;;5048437;28;19932;-41
2022/11/08 12:55:07;;;;;;;;;;;;;;;;;;5067487;28;20434;-41
2022/11/08 12:57:34;;;;;;;;;;;;;;;;;;5087646;28;20387;-41
2022/11/08 13:00:00;;;;;;;;;;;;;;;;;;5087758;28;19909;-41
2022/11/08 13:02:26;;;;;;;;;;;;;;;;;;5086588;28;20295;-41
2022/11/08 13:04:52;;;;;;;;;;;;;;;;;;5086862;28;20601;-41
2022/11/08 13:07:18;;;;;;;;;;;;;;;;;;5082461;28;19915;-41
2022/11/08 13:09:44;;;;;;;;;;;;;;;;;;5065850;28;20462;-41
2022/11/08 13:12:10;;;;;;;;;;;;;;;;;;5066681;28;19949;-41
2022/11/08 13:14:36;;;;;;;;;;;;;;;;;;5048257;28;19919;-41
2022/11/08 13:17:02;;;;;;;;;;;;;;;;;;5066625;28;19912;-41
2022/11/08 13:19:28;;;;;;;;;;;;;;;;;;5083856;28;20334;-41
2022/11/08 13:21:54;;;;;;;;;;;;;;;;;;5086313;28;20053;-41
2022/11/08 13:24:21;;;;;;;;;;;;;;;;;;5078803;28;20501;-41
2022/11/08 13:26:48;;;;;;;;;;;;;;;;;;5066286;28;19912;-41
2022/11/08 13:29:14;;;;;;;;;;;;;;;;;;5066324;28;19911;-41
2022/11/08 13:31:40;;;;;;;;;;;;;;;;;;5066617;28;19912;-41
2022/11/08 13:34:07;;;;;;;;;;;;;;;;;;5065988;28;20003;-41
2022/11/08 13:36:33;;;;;;;;;;;;;;;;;;5066276;28;19911;-41
2022/11/08 13:38:59;;;;;;;;;;;;;;;;;;5066712;28;19904;-41
2022/11/08 13:41:25;;;;;;;;;;;;;;;;;;5065591;28;19905;-41
2022/11/08 13:43:52;;;;;;;;;;;;;;;;;;5086676;28;20418;-41
2022/11/08 13:46:18;;;;;;;;;;;;;;;;;;5106723;28;19908;-41
2022/11/08 13:48:43;;;;;;;;;;;;;;;;;;5094122;28;20386;-41
2022/11/08 13:51:09;;;;;;;;;;;;;;;;;;5085687;28;19904;-41
2022/11/08 13:53:35;;;;;;;;;;;;;;;;;;5085725;28;20006;-41
2022/11/08 13:56:01;;;;;;;;;;;;;;;;;;5086626;28;19926;-41
2022/11/08 13:58:27;;;;;;;;;;;;;;;;;;5073811;28;19920;-41
2022/11/08 14:00:54;;;;;;;;;;;;;;;;;;5066099;28;19905;-41
2022/11/08 14:03:21;;;;;;;;;;;;;;;;;;5076629;28;19999;-41
2022/11/08 14:05:48;;;;;;;;;;;;;;;;;;5064466;28;19973;-41
2022/11/08 14:08:14;;;;;;;;;;;;;;;;;;5097031;28;19904;-41
2022/11/08 14:10:40;;;;;;;;;;;;;;;;;;5103435;28;19930;-41
2022/11/08 14:13:06;;;;;;;;;;;;;;;;;;5086060;28;20386;-41
2022/11/08 14:15:32;;;;;;;;;;;;;;;;;;5085588;28;19941;-41
2022/11/08 14:17:58;;;;;;;;;;;;;;;;;;5073996;28;20345;-42
2022/11/08 14:20:24;;;;;;;;;;;;;;;;;;5064201;28;19912;-41
2022/11/08 14:22:50;;;;;;;;;;;;;;;;;;5064597;28;20220;-41
2022/11/08 14:25:16;;;;;;;;;;;;;;;;;;5067265;28;19919;-41
2022/11/08 14:27:42;;;;;;;;;;;;;;;;;;5048577;28;19916;-41
2022/11/08 14:30:08;;;;;;;;;;;;;;;;;;5075198;28;20354;-41
2022/11/08 14:32:34;;;;;;;;;;;;;;;;;;5064610;28;19908;-41
2022/11/08 14:35:01;;;;;;;;;;;;;;;;;;5064854;28;19962;-41
2022/11/08 14:37:26;;;;;;;;;;;;;;;;;;5064276;28;19922;-41
2022/11/08 14:39:52;;;;;;;;;;;;;;;;;;5076080;28;19908;-41
2022/11/08 14:42:18;;;;;;;;;;;;;;;;;;5077891;28;19915;-41
2022/11/08 14:44:44;;;;;;;;;;;;;;;;;;5092357;28;20588;-41
2022/11/08 14:47:10;;;;;;;;;;;;;;;;;;5086915;28;19908;-41
2022/11/08 14:49:37;;;;;;;;;;;;;;;;;;5086201;28;19923;-41
2022/11/08 14:52:03;;;;;;;;;;;;;;;;;;5076706;28;19916;-41
2022/11/08 14:54:29;;;;;;;;;;;;;;;;;;5077546;28;20042;-40
2022/11/08 14:56:55;;;;;;;;;;;;;;;;;;5087568;28;19995;-40
2022/11/08 14:59:26;;;;;;;;;;;;;;;;;;5087424;28;19907;-41
2022/11/08 15:01:52;;;;;;;;;;;;;;;;;;5087326;28;19995;-40
2022/11/08 15:04:18;;;;;;;;;;;;;;;;;;5087322;28;19916;-41
2022/11/08 15:06:44;;;;;;;;;;;;;;;;;;5086766;28;19935;-41
2022/11/08 15:09:10;;;;;;;;;;;;;;;;;;5087073;28;19931;-40
2022/11/08 15:11:36;;;;;;;;;;;;;;;;;;5087363;28;19943;-40
2022/11/08 15:14:02;;;;;;;;;;;;;;;;;;5087978;28;19908;-40
2022/11/08 15:16:28;;;;;;;;;;;;;;;;;;5087216;28;19908;-41
2022/11/08 15:18:54;;;;;;;;;;;;;;;;;;5087384;28;19912;-41
2022/11/08 15:21:20;;;;;;;;;;;;;;;;;;5086815;28;19923;-40
2022/11/08 15:23:46;;;;;;;;;;;;;;;;;;5086921;28;19923;-40
2022/11/08 15:26:12;;;;;;;;;;;;;;;;;;5087887;28;20348;-40
2022/11/08 15:28:38;;;;;;;;;;;;;;;;;;5091076;28;19904;-40
2022/11/08 15:31:04;;;;;;;;;;;;;;;;;;5091525;28;19904;-40
2022/11/08 15:33:30;;;;;;;;;;;;;;;;;;5091976;28;19901;-40
2022/11/08 15:35:56;;;;;;;;;;;;;;;;;;5090875;28;19914;-40
2022/11/08 15:38:22;;;;;;;;;;;;;;;;;;5091207;28;19900;-40
2022/11/08 15:40:48;;;;;;;;;;;;;;;;;;5090938;28;19908;-40
2022/11/08 15:43:14;;;;;;;;;;;;;;;;;;5091151;28;19930;-40
2022/11/08 15:45:40;;;;;;;;;;;;;;;;;;5090915;28;19958;-40
2022/11/08 15:48:06;;;;;;;;;;;;;;;;;;5091042;28;19937;-40
2022/11/08 15:50:32;;;;;;;;;;;;;;;;;;5091167;28;19930;-40
2022/11/08 15:52:59;;;;;;;;;;;;;;;;;;5090999;28;20022;-41
2022/11/08 15:55:25;;;;;;;;;;;;;;;;;;5090720;28;19904;-40
2022/11/08 15:57:50;;;;;;;;;;;;;;;;;;5079732;28;19905;-40
2022/11/08 16:00:17;;;;;;;;;;;;;;;;;;5070799;28;19908;-40
2022/11/08 16:02:43;;;;;;;;;;;;;;;;;;5080118;28;19911;-40
2022/11/08 16:05:09;;;;;;;;;;;;;;;;;;5090426;28;19915;-40
2022/11/08 16:07:35;;;;;;;;;;;;;;;;;;5091293;28;19911;-41
2022/11/08 16:10:01;;;;;;;;;;;;;;;;;;5090558;28;19903;-40
2022/11/08 16:12:26;;;;;;;;;;;;;;;;;;5090410;28;19908;-40
2022/11/08 16:14:56;;;;;;;;;;;;;;;;;;5090400;28;19904;-40
2022/11/08 16:17:22;;;;;;;;;;;;;;;;;;5090595;28;19904;-40
2022/11/08 16:19:49;;;;;;;;;;;;;;;;;;5090195;28;20003;-41
2022/11/08 16:22:15;;;;;;;;;;;;;;;;;;5090225;28;19904;-41
2022/11/08 16:24:41;;;;;;;;;;;;;;;;;;5090337;28;20415;-40
2022/11/08 16:27:07;;;;;;;;;;;;;;;;;;5090107;28;20501;-40
2022/11/08 16:29:33;;;;;;;;;;;;;;;;;;5091127;28;19919;-40
2022/11/08 16:32:00;;;;;;;;;;;;;;;;;;5089941;28;19904;-41
2022/11/08 16:34:26;;;;;;;;;;;;;;;;;;5090205;28;20391;-40
2022/11/08 16:36:53;;;;;;;;;;;;;;;;;;5089901;28;19911;-40
2022/11/08 16:39:19;;;;;;;;;;;;;;;;;;5090579;28;19904;-40
2022/11/08 16:41:45;;;;;;;;;;;;;;;;;;5090214;28;19991;-40
2022/11/08 16:44:11;;;;;;;;;;;;;;;;;;5090310;28;19908;-40
2022/11/08 16:46:37;;;;;;;;;;;;;;;;;;5090450;28;20371;-40
2022/11/08 16:49:03;;;;;;;;;;;;;;;;;;5090710;28;19950;-41
2022/11/08 16:51:29;;;;;;;;;;;;;;;;;;5090042;28;20011;-40
2022/11/08 16:53:55;;;;;;;;;;;;;;;;;;5090250;28;19998;-41
2022/11/08 16:56:21;;;;;;;;;;;;;;;;;;5089867;28;19907;-40
2022/11/08 16:58:47;;;;;;;;;;;;;;;;;;5090191;28;19998;-40
2022/11/08 17:01:13;;;;;;;;;;;;;;;;;;5089920;28;20018;-40
2022/11/08 17:03:39;;;;;;;;;;;;;;;;;;5089703;28;19918;-40
2022/11/08 17:06:05;;;;;;;;;;;;;;;;;;5090325;28;19915;-40
2022/11/08 17:08:31;;;;;;;;;;;;;;;;;;5090007;28;19908;-41
2022/11/08 17:10:57;;;;;;;;;;;;;;;;;;5089724;28;19904;-40
2022/11/08 17:13:23;;;;;;;;;;;;;;;;;;5089755;28;19919;-40
2022/11/08 17:15:49;;;;;;;;;;;;;;;;;;5089408;28;19914;-40
2022/11/08 17:18:15;;;;;;;;;;;;;;;;;;5089431;28;19903;-40
2022/11/08 17:20:41;;;;;;;;;;;;;;;;;;5089375;28;19900;-40
2022/11/08 17:23:07;;;;;;;;;;;;;;;;;;5090109;28;19912;-40
2022/11/08 17:25:33;;;;;;;;;;;;;;;;;;5090319;28;19904;-40
2022/11/08 17:27:59;;;;;;;;;;;;;;;;;;5089384;28;19908;-40
2022/11/08 17:30:25;;;;;;;;;;;;;;;;;;5089338;28;19912;-40
2022/11/08 17:32:51;;;;;;;;;;;;;;;;;;5089359;28;19981;-40
2022/11/08 17:35:17;;;;;;;;;;;;;;;;;;5089267;28;19908;-41
2022/11/08 17:37:44;;;;;;;;;;;;;;;;;;5089316;28;19904;-40
2022/11/08 17:40:10;;;;;;;;;;;;;;;;;;5089196;28;19950;-40
2022/11/08 17:42:37;;;;;;;;;;;;;;;;;;5089365;28;19904;-40
2022/11/08 17:45:03;;;;;;;;;;;;;;;;;;5089175;28;19904;-40
2022/11/08 17:47:29;;;;;;;;;;;;;;;;;;5088957;28;20324;-40
2022/11/08 17:49:55;;;;;;;;;;;;;;;;;;5088053;28;19904;-40
2022/11/08 17:52:21;;;;;;;;;;;;;;;;;;5088997;28;19904;-40
2022/11/08 17:54:47;;;;;;;;;;;;;;;;;;5089118;28;19957;-40
2022/11/08 17:57:13;;;;;;;;;;;;;;;;;;5088894;28;19908;-41
2022/11/08 17:59:39;;;;;;;;;;;;;;;;;;5088784;28;19912;-40
2022/11/08 18:02:05;;;;;;;;;;;;;;;;;;5089233;28;19904;-40
2022/11/08 18:04:31;;;;;;;;;;;;;;;;;;5088348;28;20367;-40
2022/11/08 18:06:57;;;;;;;;;;;;;;;;;;5088620;28;20003;-40
2022/11/08 18:09:23;;;;;;;;;;;;;;;;;;5088781;28;19938;-41
2022/11/08 18:11:49;;;;;;;;;;;;;;;;;;5088534;28;19965;-40
2022/11/08 18:14:15;;;;;;;;;;;;;;;;;;5088593;28;19908;-40
2022/11/08 18:16:42;;;;;;;;;;;;;;;;;;5088516;28;19977;-40
2022/11/08 18:19:08;;;;;;;;;;;;;;;;;;5088047;28;20461;-41
2022/11/08 18:21:34;;;;;;;;;;;;;;;;;;5088739;28;20485;-41
2022/11/08 18:24:01;;;;;;;;;;;;;;;;;;5088347;28;19912;-40
2022/11/08 18:26:27;;;;;;;;;;;;;;;;;;5088521;28;19908;-40
2022/11/08 18:28:53;;;;;;;;;;;;;;;;;;5088266;28;19927;-40
2022/11/08 18:31:19;;;;;;;;;;;;;;;;;;5087828;28;19908;-40
2022/11/08 18:33:45;;;;;;;;;;;;;;;;;;5087981;28;19908;-40
2022/11/08 18:36:11;;;;;;;;;;;;;;;;;;5088097;28;19903;-40
2022/11/08 18:38:40;;;;;;;;;;;;;;;;;;5088619;28;19908;-40
2022/11/08 18:41:06;;;;;;;;;;;;;;;;;;5088594;28;19915;-40
2022/11/08 18:43:32;;;;;;;;;;;;;;;;;;5088406;28;19912;-40
2022/11/08 18:45:58;;;;;;;;;;;;;;;;;;5087849;28;19931;-40
2022/11/08 18:48:24;;;;;;;;;;;;;;;;;;5079366;28;19904;-40
2022/11/08 18:50:51;;;;;;;;;;;;;;;;;;5076297;28;19943;-40
2022/11/08 18:53:17;;;;;;;;;;;;;;;;;;5068874;28;19904;-40
2022/11/08 18:55:43;;;;;;;;;;;;;;;;;;5067820;28;19999;-41
2022/11/08 18:58:09;;;;;;;;;;;;;;;;;;5080815;28;20381;-40
2022/11/08 19:00:35;;;;;;;;;;;;;;;;;;5075297;28;19908;-40
2022/11/08 19:03:01;;;;;;;;;;;;;;;;;;5076307;28;19916;-40
2022/11/08 19:05:27;;;;;;;;;;;;;;;;;;5068742;28;20329;-40
2022/11/08 19:07:53;;;;;;;;;;;;;;;;;;5070975;28;19915;-40
2022/11/08 19:10:18;;;;;;;;;;;;;;;;;;5071987;28;19954;-41
2022/11/08 19:12:44;;;;;;;;;;;;;;;;;;5088712;28;19911;-41
2022/11/08 19:15:10;;;;;;;;;;;;;;;;;;5088871;28;19903;-41
2022/11/08 19:17:36;;;;;;;;;;;;;;;;;;5073066;28;19963;-41
2022/11/08 19:20:02;;;;;;;;;;;;;;;;;;5089362;28;19908;-41
2022/11/08 19:22:28;;;;;;;;;;;;;;;;;;5076205;28;19919;-41
2022/11/08 19:24:54;;;;;;;;;;;;;;;;;;5058154;28;20778;-41
2022/11/08 19:27:20;;;;;;;;;;;;;;;;;;5077005;28;19908;-41
2022/11/08 19:29:46;;;;;;;;;;;;;;;;;;5068403;28;19909;-41
2022/11/08 19:32:12;;;;;;;;;;;;;;;;;;5096341;28;20052;-41
2022/11/08 19:34:37;;;;;;;;;;;;;;;;;;5085982;28;19916;-40
2022/11/08 19:37:03;;;;;;;;;;;;;;;;;;5080949;28;19908;-40
2022/11/08 19:39:29;;;;;;;;;;;;;;;;;;5077001;28;20559;-40
2022/11/08 19:41:55;;;;;;;;;;;;;;;;;;5075681;28;19923;-41
2022/11/08 19:44:21;;;;;;;;;;;;;;;;;;5071271;28;19916;-40
2022/11/08 19:46:48;;;;;;;;;;;;;;;;;;5069860;28;19908;-41
2022/11/08 19:49:14;;;;;;;;;;;;;;;;;;5067609;28;19950;-41
2022/11/08 19:51:40;;;;;;;;;;;;;;;;;;5076407;28;19912;-40
2022/11/08 19:54:06;;;;;;;;;;;;;;;;;;5079053;28;19935;-41
2022/11/08 19:56:31;;;;;;;;;;;;;;;;;;5081574;28;20283;-40
2022/11/08 19:58:57;;;;;;;;;;;;;;;;;;5092446;28;21166;-41
2022/11/08 20:01:23;;;;;;;;;;;;;;;;;;5079853;28;19909;-40
2022/11/08 20:03:49;;;;;;;;;;;;;;;;;;5077807;28;20402;-41
2022/11/08 20:06:15;;;;;;;;;;;;;;;;;;5096883;28;19908;-41
2022/11/08 20:08:41;;;;;;;;;;;;;;;;;;5081717;28;19908;-41
2022/11/08 20:11:07;;;;;;;;;;;;;;;;;;5087621;28;20279;-41
2022/11/08 20:13:33;;;;;;;;;;;;;;;;;;5074752;28;19908;-41
2022/11/08 20:15:59;;;;;;;;;;;;;;;;;;5075612;28;19912;-41
2022/11/08 20:18:25;;;;;;;;;;;;;;;;;;5087445;28;19953;-41
2022/11/08 20:20:51;;;;;;;;;;;;;;;;;;5085397;28;19909;-41
2022/11/08 20:23:17;;;;;;;;;;;;;;;;;;5080918;28;19916;-41
2022/11/08 20:25:43;;;;;;;;;;;;;;;;;;5058355;28;19969;-41
2022/11/08 20:28:09;;;;;;;;;;;;;;;;;;5080875;28;19953;-41
2022/11/08 20:30:37;;;;;;;;;;;;;;;;;;5084501;28;19908;-41
2022/11/08 20:33:03;;;;;;;;;;;;;;;;;;5087556;28;19916;-41
2022/11/08 20:35:30;;;;;;;;;;;;;;;;;;5072526;28;19934;-41
2022/11/08 20:37:56;;;;;;;;;;;;;;;;;;5086056;28;19914;-41
2022/11/08 20:40:21;;;;;;;;;;;;;;;;;;5082754;28;19908;-41
2022/11/08 20:42:47;;;;;;;;;;;;;;;;;;5073306;28;19912;-41
2022/11/08 20:45:13;;;;;;;;;;;;;;;;;;5073487;28;19931;-41
2022/11/08 20:47:39;;;;;;;;;;;;;;;;;;5074219;28;19961;-41
2022/11/08 20:50:05;;;;;;;;;;;;;;;;;;5078258;28;19999;-41
2022/11/08 20:52:31;;;;;;;;;;;;;;;;;;5070064;28;19911;-41
2022/11/08 20:54:57;;;;;;;;;;;;;;;;;;5086963;28;19973;-41
2022/11/08 20:57:23;;;;;;;;;;;;;;;;;;5090324;28;19904;-41
2022/11/08 20:59:48;;;;;;;;;;;;;;;;;;5090382;28;19931;-41
2022/11/08 21:02:14;;;;;;;;;;;;;;;;;;5090735;28;19910;-41
2022/11/08 21:04:40;;;;;;;;;;;;;;;;;;5088632;28;19912;-41
2022/11/08 21:07:06;;;;;;;;;;;;;;;;;;5090936;28;19908;-41
2022/11/08 21:09:32;;;;;;;;;;;;;;;;;;5089843;28;19904;-41
2022/11/08 21:11:58;;;;;;;;;;;;;;;;;;5083672;28;20372;-41
2022/11/08 21:14:24;;;;;;;;;;;;;;;;;;5082218;28;19915;-41
2022/11/08 21:16:50;;;;;;;;;;;;;;;;;;5084697;28;19951;-41
2022/11/08 21:19:16;;;;;;;;;;;;;;;;;;5089452;28;19915;-41
2022/11/08 21:21:45;;;;;;;;;;;;;;;;;;5090219;28;19904;-41
2022/11/08 21:24:10;;;;;;;;;;;;;;;;;;5088282;28;19911;-41
2022/11/08 21:26:36;;;;;;;;;;;;;;;;;;5090374;28;19931;-41
2022/11/08 21:29:02;;;;;;;;;;;;;;;;;;5087636;28;19982;-41
2022/11/08 21:31:28;;;;;;;;;;;;;;;;;;5089502;28;19904;-41
2022/11/08 21:33:54;;;;;;;;;;;;;;;;;;5089848;28;20297;-41
2022/11/08 21:36:22;;;;;;;;;;;;;;;;;;5089800;28;19908;-41
2022/11/08 21:38:47;;;;;;;;;;;;;;;;;;5088391;28;19926;-41
2022/11/08 21:41:13;;;;;;;;;;;;;;;;;;5089511;28;20364;-41
2022/11/08 21:43:41;;;;;;;;;;;;;;;;;;5089909;28;19908;-41
2022/11/08 21:46:07;;;;;;;;;;;;;;;;;;5089913;28;20384;-41
2022/11/08 21:48:33;;;;;;;;;;;;;;;;;;5089410;28;19995;-41
2022/11/08 21:50:59;;;;;;;;;;;;;;;;;;5071507;28;19908;-41
2022/11/08 21:53:25;;;;;;;;;;;;;;;;;;5068962;28;19904;-41